sensor_id;sensor_type;location;lat;lon;timestamp;P1;durP1;ratioP1;P2;durP2;ratioP2
70707;SDS011;58277;47.316;18.908;2024-01-15T00:00:53;79.03;;;27.20;;
70707;SDS011;58277;47.316;18.908;2024-01-15T00:03:16;73.65;;;26.13;;
70707;SDS011;58277;47.316;18.908;2024-01-15T00:05:39;77.27;;;25.83;;
70707;SDS011;58277;47.316;18.908;2024-01-15T00:08:02;70.20;;;26.98;;
70707;SDS011;58277;47.316;18.908;2024-01-15T00:10:25;80.18;;;27.58;;
70707;SDS011;58277;47.316;18.908;2024-01-15T00:12:47;78.00;;;27.48;;
70707;SDS011;58277;47.316;18.908;2024-01-15T00:15:10;76.63;;;27.50;;
70707;SDS011;58277;47.316;18.908;2024-01-15T00:17:33;82.80;;;27.17;;
70707;SDS011;58277;47.316;18.908;2024-01-15T00:19:56;76.93;;;25.67;;
70707;SDS011;58277;47.316;18.908;2024-01-15T00:22:18;78.47;;;28.25;;
70707;SDS011;58277;47.316;18.908;2024-01-15T00:24:42;79.90;;;27.95;;
70707;SDS011;58277;47.316;18.908;2024-01-15T00:27:04;72.00;;;27.35;;
70707;SDS011;58277;47.316;18.908;2024-01-15T00:29:27;77.57;;;26.77;;
70707;SDS011;58277;47.316;18.908;2024-01-15T00:31:50;76.20;;;27.17;;
70707;SDS011;58277;47.316;18.908;2024-01-15T00:34:13;79.95;;;29.80;;
70707;SDS011;58277;47.316;18.908;2024-01-15T00:36:35;77.32;;;26.85;;
70707;SDS011;58277;47.316;18.908;2024-01-15T00:38:58;81.15;;;27.48;;
70707;SDS011;58277;47.316;18.908;2024-01-15T00:41:21;80.80;;;28.73;;
70707;SDS011;58277;47.316;18.908;2024-01-15T00:43:45;82.18;;;28.65;;
70707;SDS011;58277;47.316;18.908;2024-01-15T00:46:08;83.03;;;28.88;;
70707;SDS011;58277;47.316;18.908;2024-01-15T00:48:31;79.30;;;29.45;;
70707;SDS011;58277;47.316;18.908;2024-01-15T00:50:54;80.22;;;28.20;;
70707;SDS011;58277;47.316;18.908;2024-01-15T00:53:17;77.67;;;26.70;;
70707;SDS011;58277;47.316;18.908;2024-01-15T00:55:40;80.38;;;28.05;;
70707;SDS011;58277;47.316;18.908;2024-01-15T00:58:03;75.22;;;27.38;;
70707;SDS011;58277;47.316;18.908;2024-01-15T01:00:26;77.60;;;27.70;;
70707;SDS011;58277;47.316;18.908;2024-01-15T01:02:49;73.72;;;27.90;;
70707;SDS011;58277;47.316;18.908;2024-01-15T01:05:12;76.70;;;26.30;;
70707;SDS011;58277;47.316;18.908;2024-01-15T01:07:35;79.47;;;26.92;;
70707;SDS011;58277;47.316;18.908;2024-01-15T01:09:58;78.18;;;27.10;;
70707;SDS011;58277;47.316;18.908;2024-01-15T01:12:20;76.95;;;26.98;;
70707;SDS011;58277;47.316;18.908;2024-01-15T01:14:43;83.57;;;28.48;;
70707;SDS011;58277;47.316;18.908;2024-01-15T01:17:06;83.00;;;27.57;;
70707;SDS011;58277;47.316;18.908;2024-01-15T01:19:28;77.35;;;26.35;;
70707;SDS011;58277;47.316;18.908;2024-01-15T01:21:53;71.22;;;25.33;;
70707;SDS011;58277;47.316;18.908;2024-01-15T01:24:16;68.53;;;25.13;;
70707;SDS011;58277;47.316;18.908;2024-01-15T01:26:39;76.40;;;24.65;;
70707;SDS011;58277;47.316;18.908;2024-01-15T01:29:02;70.13;;;24.70;;
70707;SDS011;58277;47.316;18.908;2024-01-15T01:31:24;69.93;;;24.80;;
70707;SDS011;58277;47.316;18.908;2024-01-15T01:33:47;76.78;;;25.52;;
70707;SDS011;58277;47.316;18.908;2024-01-15T01:36:10;66.75;;;23.73;;
70707;SDS011;58277;47.316;18.908;2024-01-15T01:38:33;74.07;;;24.15;;
70707;SDS011;58277;47.316;18.908;2024-01-15T01:40:56;71.27;;;25.23;;
70707;SDS011;58277;47.316;18.908;2024-01-15T01:43:19;71.20;;;24.67;;
70707;SDS011;58277;47.316;18.908;2024-01-15T01:45:41;72.60;;;24.42;;
70707;SDS011;58277;47.316;18.908;2024-01-15T01:48:04;73.18;;;25.35;;
70707;SDS011;58277;47.316;18.908;2024-01-15T01:50:31;68.25;;;25.25;;
70707;SDS011;58277;47.316;18.908;2024-01-15T01:52:54;69.87;;;23.53;;
70707;SDS011;58277;47.316;18.908;2024-01-15T01:55:18;66.38;;;23.85;;
70707;SDS011;58277;47.316;18.908;2024-01-15T01:57:41;67.25;;;25.67;;
70707;SDS011;58277;47.316;18.908;2024-01-15T02:00:04;73.60;;;25.00;;
70707;SDS011;58277;47.316;18.908;2024-01-15T02:02:36;73.75;;;25.23;;
70707;SDS011;58277;47.316;18.908;2024-01-15T02:04:58;71.47;;;24.17;;
70707;SDS011;58277;47.316;18.908;2024-01-15T02:07:21;71.15;;;23.15;;
70707;SDS011;58277;47.316;18.908;2024-01-15T02:09:45;67.00;;;23.67;;
70707;SDS011;58277;47.316;18.908;2024-01-15T02:12:08;73.72;;;24.55;;
70707;SDS011;58277;47.316;18.908;2024-01-15T02:14:30;68.00;;;23.88;;
70707;SDS011;58277;47.316;18.908;2024-01-15T02:16:53;63.07;;;22.83;;
70707;SDS011;58277;47.316;18.908;2024-01-15T02:19:16;64.65;;;23.10;;
70707;SDS011;58277;47.316;18.908;2024-01-15T02:21:40;71.45;;;23.92;;
70707;SDS011;58277;47.316;18.908;2024-01-15T02:24:03;65.93;;;23.75;;
70707;SDS011;58277;47.316;18.908;2024-01-15T02:26:25;61.25;;;22.85;;
70707;SDS011;58277;47.316;18.908;2024-01-15T02:28:48;68.77;;;24.30;;
70707;SDS011;58277;47.316;18.908;2024-01-15T02:31:13;70.32;;;24.25;;
70707;SDS011;58277;47.316;18.908;2024-01-15T02:33:36;66.28;;;24.17;;
70707;SDS011;58277;47.316;18.908;2024-01-15T02:35:59;71.25;;;23.27;;
70707;SDS011;58277;47.316;18.908;2024-01-15T02:38:21;65.47;;;23.80;;
70707;SDS011;58277;47.316;18.908;2024-01-15T02:40:44;67.03;;;23.63;;
70707;SDS011;58277;47.316;18.908;2024-01-15T02:43:07;69.55;;;24.50;;
70707;SDS011;58277;47.316;18.908;2024-01-15T02:45:30;71.97;;;24.33;;
70707;SDS011;58277;47.316;18.908;2024-01-15T02:47:53;70.95;;;24.80;;
70707;SDS011;58277;47.316;18.908;2024-01-15T02:50:15;71.07;;;23.83;;
70707;SDS011;58277;47.316;18.908;2024-01-15T02:52:38;68.00;;;24.10;;
70707;SDS011;58277;47.316;18.908;2024-01-15T02:55:01;70.97;;;24.45;;
70707;SDS011;58277;47.316;18.908;2024-01-15T02:57:24;79.72;;;26.88;;
70707;SDS011;58277;47.316;18.908;2024-01-15T02:59:46;76.47;;;25.65;;
70707;SDS011;58277;47.316;18.908;2024-01-15T03:02:09;77.40;;;25.90;;
70707;SDS011;58277;47.316;18.908;2024-01-15T03:04:32;75.37;;;23.83;;
70707;SDS011;58277;47.316;18.908;2024-01-15T03:06:55;75.90;;;26.65;;
70707;SDS011;58277;47.316;18.908;2024-01-15T03:09:17;78.50;;;25.92;;
70707;SDS011;58277;47.316;18.908;2024-01-15T03:11:40;68.57;;;24.60;;
70707;SDS011;58277;47.316;18.908;2024-01-15T03:14:03;75.13;;;26.20;;
70707;SDS011;58277;47.316;18.908;2024-01-15T03:16:26;73.03;;;25.13;;
70707;SDS011;58277;47.316;18.908;2024-01-15T03:18:48;78.40;;;24.98;;
70707;SDS011;58277;47.316;18.908;2024-01-15T03:21:11;75.40;;;26.25;;
70707;SDS011;58277;47.316;18.908;2024-01-15T03:23:34;78.38;;;26.48;;
70707;SDS011;58277;47.316;18.908;2024-01-15T03:25:57;74.22;;;25.17;;
70707;SDS011;58277;47.316;18.908;2024-01-15T03:28:19;73.57;;;25.03;;
70707;SDS011;58277;47.316;18.908;2024-01-15T03:30:42;73.03;;;25.85;;
70707;SDS011;58277;47.316;18.908;2024-01-15T03:33:05;72.43;;;26.35;;
70707;SDS011;58277;47.316;18.908;2024-01-15T03:35:28;73.53;;;25.95;;
70707;SDS011;58277;47.316;18.908;2024-01-15T03:37:53;82.00;;;24.92;;
70707;SDS011;58277;47.316;18.908;2024-01-15T03:40:15;72.93;;;25.60;;
70707;SDS011;58277;47.316;18.908;2024-01-15T03:42:42;72.35;;;24.63;;
70707;SDS011;58277;47.316;18.908;2024-01-15T03:45:05;74.10;;;25.75;;
70707;SDS011;58277;47.316;18.908;2024-01-15T03:47:28;79.20;;;25.30;;
70707;SDS011;58277;47.316;18.908;2024-01-15T03:49:50;71.55;;;24.42;;
70707;SDS011;58277;47.316;18.908;2024-01-15T03:52:13;71.43;;;25.10;;
70707;SDS011;58277;47.316;18.908;2024-01-15T03:54:36;72.72;;;25.00;;
70707;SDS011;58277;47.316;18.908;2024-01-15T03:57:00;78.15;;;25.25;;
70707;SDS011;58277;47.316;18.908;2024-01-15T03:59:22;73.18;;;23.70;;
70707;SDS011;58277;47.316;18.908;2024-01-15T04:01:49;71.25;;;23.40;;
70707;SDS011;58277;47.316;18.908;2024-01-15T04:04:13;71.90;;;24.97;;
70707;SDS011;58277;47.316;18.908;2024-01-15T04:06:38;72.35;;;23.90;;
70707;SDS011;58277;47.316;18.908;2024-01-15T04:09:01;70.03;;;25.05;;
70707;SDS011;58277;47.316;18.908;2024-01-15T04:11:24;71.90;;;23.92;;
70707;SDS011;58277;47.316;18.908;2024-01-15T04:13:47;71.65;;;25.10;;
70707;SDS011;58277;47.316;18.908;2024-01-15T04:16:09;70.57;;;23.07;;
70707;SDS011;58277;47.316;18.908;2024-01-15T04:18:32;78.78;;;24.80;;
70707;SDS011;58277;47.316;18.908;2024-01-15T04:20:55;77.47;;;24.83;;
70707;SDS011;58277;47.316;18.908;2024-01-15T04:23:18;82.47;;;24.98;;
70707;SDS011;58277;47.316;18.908;2024-01-15T04:25:40;79.32;;;25.50;;
70707;SDS011;58277;47.316;18.908;2024-01-15T04:28:05;75.50;;;22.90;;
70707;SDS011;58277;47.316;18.908;2024-01-15T04:30:27;72.03;;;23.60;;
70707;SDS011;58277;47.316;18.908;2024-01-15T04:32:50;94.55;;;27.60;;
70707;SDS011;58277;47.316;18.908;2024-01-15T04:35:13;98.72;;;29.17;;
70707;SDS011;58277;47.316;18.908;2024-01-15T04:37:36;97.20;;;28.52;;
70707;SDS011;58277;47.316;18.908;2024-01-15T04:40:00;75.50;;;24.77;;
70707;SDS011;58277;47.316;18.908;2024-01-15T04:42:23;80.57;;;27.15;;
70707;SDS011;58277;47.316;18.908;2024-01-15T04:44:46;83.57;;;28.27;;
70707;SDS011;58277;47.316;18.908;2024-01-15T04:47:09;85.38;;;27.67;;
70707;SDS011;58277;47.316;18.908;2024-01-15T04:49:32;74.35;;;25.02;;
70707;SDS011;58277;47.316;18.908;2024-01-15T04:51:54;68.10;;;22.60;;
70707;SDS011;58277;47.316;18.908;2024-01-15T04:54:18;74.75;;;25.35;;
70707;SDS011;58277;47.316;18.908;2024-01-15T04:56:43;73.72;;;26.10;;
70707;SDS011;58277;47.316;18.908;2024-01-15T04:59:06;71.03;;;23.67;;
70707;SDS011;58277;47.316;18.908;2024-01-15T05:01:30;72.65;;;25.67;;
70707;SDS011;58277;47.316;18.908;2024-01-15T05:03:54;73.17;;;25.20;;
70707;SDS011;58277;47.316;18.908;2024-01-15T05:06:21;73.72;;;24.20;;
70707;SDS011;58277;47.316;18.908;2024-01-15T05:08:44;70.32;;;25.20;;
70707;SDS011;58277;47.316;18.908;2024-01-15T05:11:06;75.45;;;24.92;;
70707;SDS011;58277;47.316;18.908;2024-01-15T05:13:29;73.10;;;25.05;;
70707;SDS011;58277;47.316;18.908;2024-01-15T05:15:52;77.10;;;26.40;;
70707;SDS011;58277;47.316;18.908;2024-01-15T05:18:15;76.07;;;26.15;;
70707;SDS011;58277;47.316;18.908;2024-01-15T05:20:39;73.68;;;25.58;;
70707;SDS011;58277;47.316;18.908;2024-01-15T05:23:02;86.75;;;26.25;;
70707;SDS011;58277;47.316;18.908;2024-01-15T05:25:25;79.30;;;25.17;;
70707;SDS011;58277;47.316;18.908;2024-01-15T05:27:48;80.43;;;25.10;;
70707;SDS011;58277;47.316;18.908;2024-01-15T05:30:11;77.97;;;23.52;;
70707;SDS011;58277;47.316;18.908;2024-01-15T05:32:37;72.80;;;24.48;;
70707;SDS011;58277;47.316;18.908;2024-01-15T05:35:00;74.57;;;24.45;;
70707;SDS011;58277;47.316;18.908;2024-01-15T05:37:24;69.70;;;24.50;;
70707;SDS011;58277;47.316;18.908;2024-01-15T05:39:47;81.57;;;25.67;;
70707;SDS011;58277;47.316;18.908;2024-01-15T05:42:10;72.38;;;23.65;;
70707;SDS011;58277;47.316;18.908;2024-01-15T05:44:34;75.00;;;26.08;;
70707;SDS011;58277;47.316;18.908;2024-01-15T05:46:57;81.95;;;24.95;;
70707;SDS011;58277;47.316;18.908;2024-01-15T05:49:20;75.13;;;24.60;;
70707;SDS011;58277;47.316;18.908;2024-01-15T05:51:43;72.23;;;24.07;;
70707;SDS011;58277;47.316;18.908;2024-01-15T05:54:05;80.40;;;24.83;;
70707;SDS011;58277;47.316;18.908;2024-01-15T05:56:31;75.75;;;24.85;;
70707;SDS011;58277;47.316;18.908;2024-01-15T05:58:54;78.22;;;25.08;;
70707;SDS011;58277;47.316;18.908;2024-01-15T06:01:17;74.57;;;26.15;;
70707;SDS011;58277;47.316;18.908;2024-01-15T06:03:40;74.93;;;25.57;;
70707;SDS011;58277;47.316;18.908;2024-01-15T06:06:03;77.00;;;25.73;;
70707;SDS011;58277;47.316;18.908;2024-01-15T06:08:26;73.22;;;24.83;;
70707;SDS011;58277;47.316;18.908;2024-01-15T06:10:50;70.47;;;24.67;;
70707;SDS011;58277;47.316;18.908;2024-01-15T06:13:12;75.88;;;25.85;;
70707;SDS011;58277;47.316;18.908;2024-01-15T06:15:35;72.13;;;24.47;;
70707;SDS011;58277;47.316;18.908;2024-01-15T06:17:59;72.13;;;25.05;;
70707;SDS011;58277;47.316;18.908;2024-01-15T06:20:22;73.78;;;26.10;;
70707;SDS011;58277;47.316;18.908;2024-01-15T06:22:44;78.20;;;25.90;;
70707;SDS011;58277;47.316;18.908;2024-01-15T06:25:07;67.68;;;24.75;;
70707;SDS011;58277;47.316;18.908;2024-01-15T06:27:31;68.53;;;24.90;;
70707;SDS011;58277;47.316;18.908;2024-01-15T06:29:54;73.95;;;24.50;;
70707;SDS011;58277;47.316;18.908;2024-01-15T06:32:18;74.57;;;25.23;;
70707;SDS011;58277;47.316;18.908;2024-01-15T06:34:41;75.65;;;25.63;;
70707;SDS011;58277;47.316;18.908;2024-01-15T06:37:05;78.03;;;27.58;;
70707;SDS011;58277;47.316;18.908;2024-01-15T06:39:28;85.10;;;27.80;;
70707;SDS011;58277;47.316;18.908;2024-01-15T06:41:51;81.80;;;28.15;;
70707;SDS011;58277;47.316;18.908;2024-01-15T06:44:14;80.47;;;29.40;;
70707;SDS011;58277;47.316;18.908;2024-01-15T06:46:43;75.10;;;26.00;;
70707;SDS011;58277;47.316;18.908;2024-01-15T06:49:07;67.38;;;24.85;;
70707;SDS011;58277;47.316;18.908;2024-01-15T06:51:30;73.53;;;25.00;;
70707;SDS011;58277;47.316;18.908;2024-01-15T06:53:53;75.45;;;25.88;;
70707;SDS011;58277;47.316;18.908;2024-01-15T06:56:16;73.47;;;27.23;;
70707;SDS011;58277;47.316;18.908;2024-01-15T06:58:39;82.35;;;27.65;;
70707;SDS011;58277;47.316;18.908;2024-01-15T07:01:02;79.07;;;27.88;;
70707;SDS011;58277;47.316;18.908;2024-01-15T07:03:27;84.27;;;28.83;;
70707;SDS011;58277;47.316;18.908;2024-01-15T07:05:52;81.60;;;28.40;;
70707;SDS011;58277;47.316;18.908;2024-01-15T07:08:22;85.10;;;29.35;;
70707;SDS011;58277;47.316;18.908;2024-01-15T07:11:05;79.63;;;28.05;;
70707;SDS011;58277;47.316;18.908;2024-01-15T07:13:38;84.13;;;28.90;;
70707;SDS011;58277;47.316;18.908;2024-01-15T07:16:09;80.57;;;28.20;;
70707;SDS011;58277;47.316;18.908;2024-01-15T07:18:45;88.22;;;29.83;;
70707;SDS011;58277;47.316;18.908;2024-01-15T07:21:16;86.13;;;29.35;;
70707;SDS011;58277;47.316;18.908;2024-01-15T07:23:42;89.03;;;29.70;;
70707;SDS011;58277;47.316;18.908;2024-01-15T07:26:08;91.40;;;30.20;;
70707;SDS011;58277;47.316;18.908;2024-01-15T07:28:32;80.60;;;28.87;;
70707;SDS011;58277;47.316;18.908;2024-01-15T07:30:57;88.50;;;29.92;;
70707;SDS011;58277;47.316;18.908;2024-01-15T07:33:20;80.15;;;29.20;;
70707;SDS011;58277;47.316;18.908;2024-01-15T07:35:44;81.32;;;28.85;;
70707;SDS011;58277;47.316;18.908;2024-01-15T07:38:07;68.65;;;24.88;;
70707;SDS011;58277;47.316;18.908;2024-01-15T07:40:30;70.70;;;25.37;;
70707;SDS011;58277;47.316;18.908;2024-01-15T07:42:53;69.10;;;24.45;;
70707;SDS011;58277;47.316;18.908;2024-01-15T07:45:17;76.10;;;27.23;;
70707;SDS011;58277;47.316;18.908;2024-01-15T07:47:40;82.40;;;26.70;;
70707;SDS011;58277;47.316;18.908;2024-01-15T07:50:03;75.60;;;27.27;;
70707;SDS011;58277;47.316;18.908;2024-01-15T07:52:28;72.50;;;25.77;;
70707;SDS011;58277;47.316;18.908;2024-01-15T07:54:54;74.60;;;27.73;;
70707;SDS011;58277;47.316;18.908;2024-01-15T07:57:17;68.90;;;24.92;;
70707;SDS011;58277;47.316;18.908;2024-01-15T07:59:40;60.85;;;23.52;;
70707;SDS011;58277;47.316;18.908;2024-01-15T08:02:03;91.53;;;26.83;;
70707;SDS011;58277;47.316;18.908;2024-01-15T08:04:27;64.10;;;23.83;;
70707;SDS011;58277;47.316;18.908;2024-01-15T08:06:50;70.53;;;25.17;;
70707;SDS011;58277;47.316;18.908;2024-01-15T08:09:13;70.18;;;24.42;;
70707;SDS011;58277;47.316;18.908;2024-01-15T08:11:39;63.45;;;24.70;;
70707;SDS011;58277;47.316;18.908;2024-01-15T08:14:04;68.82;;;24.40;;
70707;SDS011;58277;47.316;18.908;2024-01-15T08:16:27;64.53;;;23.63;;
70707;SDS011;58277;47.316;18.908;2024-01-15T08:18:50;60.70;;;23.42;;
70707;SDS011;58277;47.316;18.908;2024-01-15T08:21:13;67.13;;;23.15;;
70707;SDS011;58277;47.316;18.908;2024-01-15T08:23:36;69.55;;;23.75;;
70707;SDS011;58277;47.316;18.908;2024-01-15T08:25:58;61.72;;;22.20;;
70707;SDS011;58277;47.316;18.908;2024-01-15T08:28:21;59.90;;;21.87;;
70707;SDS011;58277;47.316;18.908;2024-01-15T08:30:44;58.33;;;21.95;;
70707;SDS011;58277;47.316;18.908;2024-01-15T08:33:08;57.42;;;21.67;;
70707;SDS011;58277;47.316;18.908;2024-01-15T08:35:42;51.92;;;19.45;;
70707;SDS011;58277;47.316;18.908;2024-01-15T08:38:05;55.92;;;20.60;;
70707;SDS011;58277;47.316;18.908;2024-01-15T08:40:28;54.97;;;20.93;;
70707;SDS011;58277;47.316;18.908;2024-01-15T08:42:53;56.25;;;21.23;;
70707;SDS011;58277;47.316;18.908;2024-01-15T08:45:16;62.58;;;21.70;;
70707;SDS011;58277;47.316;18.908;2024-01-15T08:47:39;55.05;;;20.40;;
70707;SDS011;58277;47.316;18.908;2024-01-15T08:50:02;56.85;;;20.35;;
70707;SDS011;58277;47.316;18.908;2024-01-15T08:52:26;59.57;;;22.33;;
70707;SDS011;58277;47.316;18.908;2024-01-15T08:54:49;56.92;;;21.88;;
70707;SDS011;58277;47.316;18.908;2024-01-15T08:57:13;58.20;;;20.95;;
70707;SDS011;58277;47.316;18.908;2024-01-15T08:59:36;61.10;;;22.33;;
70707;SDS011;58277;47.316;18.908;2024-01-15T09:02:01;51.67;;;21.63;;
70707;SDS011;58277;47.316;18.908;2024-01-15T09:04:24;54.37;;;20.23;;
70707;SDS011;58277;47.316;18.908;2024-01-15T09:06:47;56.40;;;21.13;;
70707;SDS011;58277;47.316;18.908;2024-01-15T09:09:12;57.65;;;20.27;;
70707;SDS011;58277;47.316;18.908;2024-01-15T09:11:37;65.97;;;24.63;;
70707;SDS011;58277;47.316;18.908;2024-01-15T09:14:20;58.65;;;22.38;;
70707;SDS011;58277;47.316;18.908;2024-01-15T09:16:58;56.63;;;21.67;;
70707;SDS011;58277;47.316;18.908;2024-01-15T09:19:20;54.25;;;21.40;;
70707;SDS011;58277;47.316;18.908;2024-01-15T09:21:43;56.75;;;22.08;;
70707;SDS011;58277;47.316;18.908;2024-01-15T09:26:52;47.05;;;19.58;;
70707;SDS011;58277;47.316;18.908;2024-01-15T09:29:15;47.77;;;18.70;;
70707;SDS011;58277;47.316;18.908;2024-01-15T09:31:40;42.70;;;17.33;;
70707;SDS011;58277;47.316;18.908;2024-01-15T09:34:04;46.72;;;18.17;;
70707;SDS011;58277;47.316;18.908;2024-01-15T09:36:27;40.72;;;15.25;;
70707;SDS011;58277;47.316;18.908;2024-01-15T09:38:50;33.72;;;13.98;;
70707;SDS011;58277;47.316;18.908;2024-01-15T09:41:13;28.33;;;10.63;;
70707;SDS011;58277;47.316;18.908;2024-01-15T09:43:37;24.02;;;9.88;;
70707;SDS011;58277;47.316;18.908;2024-01-15T09:46:01;24.63;;;10.00;;
70707;SDS011;58277;47.316;18.908;2024-01-15T09:48:24;25.27;;;9.52;;
70707;SDS011;58277;47.316;18.908;2024-01-15T09:50:48;25.70;;;9.43;;
70707;SDS011;58277;47.316;18.908;2024-01-15T09:53:13;23.13;;;8.70;;
70707;SDS011;58277;47.316;18.908;2024-01-15T09:55:38;21.02;;;8.93;;
70707;SDS011;58277;47.316;18.908;2024-01-15T09:58:01;23.42;;;9.43;;
70707;SDS011;58277;47.316;18.908;2024-01-15T10:00:27;18.55;;;7.60;;
70707;SDS011;58277;47.316;18.908;2024-01-15T10:02:52;20.17;;;8.80;;
70707;SDS011;58277;47.316;18.908;2024-01-15T10:05:15;22.40;;;8.13;;
70707;SDS011;58277;47.316;18.908;2024-01-15T10:07:38;19.23;;;8.10;;
70707;SDS011;58277;47.316;18.908;2024-01-15T10:10:02;21.35;;;8.43;;
70707;SDS011;58277;47.316;18.908;2024-01-15T10:12:29;20.52;;;8.02;;
70707;SDS011;58277;47.316;18.908;2024-01-15T10:14:53;19.08;;;8.02;;
70707;SDS011;58277;47.316;18.908;2024-01-15T10:17:16;20.07;;;8.03;;
70707;SDS011;58277;47.316;18.908;2024-01-15T10:19:40;18.27;;;7.63;;
70707;SDS011;58277;47.316;18.908;2024-01-15T10:22:10;17.65;;;7.47;;
70707;SDS011;58277;47.316;18.908;2024-01-15T10:24:34;17.85;;;6.88;;
70707;SDS011;58277;47.316;18.908;2024-01-15T10:27:07;19.65;;;7.65;;
70707;SDS011;58277;47.316;18.908;2024-01-15T10:29:31;16.60;;;7.27;;
70707;SDS011;58277;47.316;18.908;2024-01-15T10:31:54;18.25;;;7.10;;
70707;SDS011;58277;47.316;18.908;2024-01-15T10:34:18;17.13;;;7.82;;
70707;SDS011;58277;47.316;18.908;2024-01-15T10:36:46;18.77;;;7.55;;
70707;SDS011;58277;47.316;18.908;2024-01-15T10:39:13;17.92;;;7.40;;
70707;SDS011;58277;47.316;18.908;2024-01-15T10:41:37;19.33;;;7.20;;
70707;SDS011;58277;47.316;18.908;2024-01-15T10:44:00;17.33;;;7.18;;
70707;SDS011;58277;47.316;18.908;2024-01-15T10:46:23;17.33;;;7.25;;
70707;SDS011;58277;47.316;18.908;2024-01-15T10:48:47;19.33;;;7.10;;
70707;SDS011;58277;47.316;18.908;2024-01-15T10:51:10;17.55;;;7.43;;
70707;SDS011;58277;47.316;18.908;2024-01-15T10:53:33;16.07;;;7.37;;
70707;SDS011;58277;47.316;18.908;2024-01-15T10:55:58;18.42;;;7.15;;
70707;SDS011;58277;47.316;18.908;2024-01-15T10:58:22;16.73;;;6.78;;
70707;SDS011;58277;47.316;18.908;2024-01-15T11:00:46;15.45;;;5.90;;
70707;SDS011;58277;47.316;18.908;2024-01-15T11:03:09;15.00;;;6.22;;
70707;SDS011;58277;47.316;18.908;2024-01-15T11:05:43;12.10;;;5.60;;
70707;SDS011;58277;47.316;18.908;2024-01-15T11:08:07;11.30;;;4.43;;
70707;SDS011;58277;47.316;18.908;2024-01-15T11:10:46;10.00;;;4.13;;
70707;SDS011;58277;47.316;18.908;2024-01-15T11:13:18;12.68;;;4.85;;
70707;SDS011;58277;47.316;18.908;2024-01-15T11:15:56;10.15;;;4.50;;
70707;SDS011;58277;47.316;18.908;2024-01-15T11:18:21;10.13;;;3.70;;
70707;SDS011;58277;47.316;18.908;2024-01-15T11:23:42;10.73;;;4.45;;
70707;SDS011;58277;47.316;18.908;2024-01-15T11:29:01;10.80;;;4.70;;
70707;SDS011;58277;47.316;18.908;2024-01-15T11:34:04;11.77;;;5.13;;
70707;SDS011;58277;47.316;18.908;2024-01-15T11:41:57;10.93;;;5.00;;
70707;SDS011;58277;47.316;18.908;2024-01-15T11:44:21;14.80;;;5.50;;
70707;SDS011;58277;47.316;18.908;2024-01-15T11:46:46;12.82;;;5.63;;
70707;SDS011;58277;47.316;18.908;2024-01-15T11:51:54;12.65;;;5.40;;
70707;SDS011;58277;47.316;18.908;2024-01-15T11:54:20;13.90;;;5.75;;
70707;SDS011;58277;47.316;18.908;2024-01-15T11:56:47;11.03;;;5.13;;
70707;SDS011;58277;47.316;18.908;2024-01-15T11:59:11;12.15;;;5.78;;
70707;SDS011;58277;47.316;18.908;2024-01-15T12:01:34;12.20;;;5.43;;
70707;SDS011;58277;47.316;18.908;2024-01-15T12:03:57;13.73;;;5.78;;
70707;SDS011;58277;47.316;18.908;2024-01-15T12:06:21;12.07;;;5.13;;
70707;SDS011;58277;47.316;18.908;2024-01-15T12:08:48;13.83;;;4.73;;
70707;SDS011;58277;47.316;18.908;2024-01-15T12:11:13;13.45;;;5.20;;
70707;SDS011;58277;47.316;18.908;2024-01-15T12:13:41;12.30;;;5.10;;
70707;SDS011;58277;47.316;18.908;2024-01-15T12:16:05;11.88;;;5.00;;
70707;SDS011;58277;47.316;18.908;2024-01-15T12:18:30;13.27;;;5.20;;
70707;SDS011;58277;47.316;18.908;2024-01-15T12:20:53;13.60;;;4.87;;
70707;SDS011;58277;47.316;18.908;2024-01-15T12:23:16;11.40;;;4.63;;
70707;SDS011;58277;47.316;18.908;2024-01-15T12:25:40;9.93;;;4.60;;
70707;SDS011;58277;47.316;18.908;2024-01-15T12:28:04;11.35;;;4.70;;
70707;SDS011;58277;47.316;18.908;2024-01-15T12:30:28;11.07;;;4.68;;
70707;SDS011;58277;47.316;18.908;2024-01-15T12:32:54;11.80;;;4.90;;
70707;SDS011;58277;47.316;18.908;2024-01-15T12:35:18;10.75;;;5.13;;
70707;SDS011;58277;47.316;18.908;2024-01-15T12:37:41;9.80;;;4.30;;
70707;SDS011;58277;47.316;18.908;2024-01-15T12:40:07;11.00;;;4.55;;
70707;SDS011;58277;47.316;18.908;2024-01-15T12:42:36;8.68;;;3.17;;
70707;SDS011;58277;47.316;18.908;2024-01-15T12:45:00;6.77;;;2.67;;
70707;SDS011;58277;47.316;18.908;2024-01-15T12:47:23;5.97;;;3.03;;
70707;SDS011;58277;47.316;18.908;2024-01-15T12:49:46;6.25;;;2.85;;
70707;SDS011;58277;47.316;18.908;2024-01-15T12:52:12;7.50;;;2.92;;
70707;SDS011;58277;47.316;18.908;2024-01-15T12:54:36;9.85;;;3.13;;
70707;SDS011;58277;47.316;18.908;2024-01-15T12:56:59;7.30;;;2.87;;
70707;SDS011;58277;47.316;18.908;2024-01-15T12:59:22;5.78;;;2.47;;
70707;SDS011;58277;47.316;18.908;2024-01-15T13:01:45;8.13;;;2.70;;
70707;SDS011;58277;47.316;18.908;2024-01-15T13:04:09;6.43;;;2.80;;
70707;SDS011;58277;47.316;18.908;2024-01-15T13:06:32;5.60;;;2.90;;
70707;SDS011;58277;47.316;18.908;2024-01-15T13:08:55;7.70;;;2.80;;
70707;SDS011;58277;47.316;18.908;2024-01-15T13:11:18;6.53;;;2.88;;
70707;SDS011;58277;47.316;18.908;2024-01-15T13:13:41;7.07;;;3.10;;
70707;SDS011;58277;47.316;18.908;2024-01-15T13:16:03;6.57;;;2.58;;
70707;SDS011;58277;47.316;18.908;2024-01-15T13:18:27;6.57;;;2.88;;
70707;SDS011;58277;47.316;18.908;2024-01-15T13:20:50;4.37;;;2.17;;
70707;SDS011;58277;47.316;18.908;2024-01-15T13:23:13;6.45;;;2.45;;
70707;SDS011;58277;47.316;18.908;2024-01-15T13:25:35;5.05;;;2.33;;
70707;SDS011;58277;47.316;18.908;2024-01-15T13:28:00;8.23;;;3.08;;
70707;SDS011;58277;47.316;18.908;2024-01-15T13:30:25;6.78;;;3.17;;
70707;SDS011;58277;47.316;18.908;2024-01-15T13:32:48;8.53;;;2.97;;
70707;SDS011;58277;47.316;18.908;2024-01-15T13:35:11;5.47;;;2.53;;
70707;SDS011;58277;47.316;18.908;2024-01-15T13:37:36;6.35;;;2.80;;
70707;SDS011;58277;47.316;18.908;2024-01-15T13:40:00;4.53;;;2.30;;
70707;SDS011;58277;47.316;18.908;2024-01-15T13:42:23;6.10;;;2.65;;
70707;SDS011;58277;47.316;18.908;2024-01-15T13:44:47;5.90;;;2.43;;
70707;SDS011;58277;47.316;18.908;2024-01-15T13:47:10;5.38;;;2.17;;
70707;SDS011;58277;47.316;18.908;2024-01-15T13:49:33;5.18;;;2.05;;
70707;SDS011;58277;47.316;18.908;2024-01-15T13:51:56;4.70;;;2.10;;
70707;SDS011;58277;47.316;18.908;2024-01-15T13:54:19;5.40;;;2.30;;
70707;SDS011;58277;47.316;18.908;2024-01-15T13:56:46;5.63;;;2.63;;
70707;SDS011;58277;47.316;18.908;2024-01-15T13:59:09;5.53;;;2.53;;
70707;SDS011;58277;47.316;18.908;2024-01-15T14:01:32;6.35;;;2.45;;
70707;SDS011;58277;47.316;18.908;2024-01-15T14:03:55;6.30;;;2.90;;
70707;SDS011;58277;47.316;18.908;2024-01-15T14:06:18;6.82;;;2.63;;
70707;SDS011;58277;47.316;18.908;2024-01-15T14:08:42;6.13;;;2.20;;
70707;SDS011;58277;47.316;18.908;2024-01-15T14:11:06;6.53;;;2.40;;
70707;SDS011;58277;47.316;18.908;2024-01-15T14:13:29;5.78;;;2.33;;